Hlavní strana
METAR-TAF:

METAR-TAF

Letiště :

Mezinárodní letiště Male

Male, Maledivy

zeměpisná šířka: 04-12N, zeměpisná délka: 073-32E, výška: 2 m

Aktuální stav počasí

Zpráva byla vytvořena před 1 hodinou a 24 minutami, v 04:00 UTC
Jihozápadní vítr 9 kt
Teplota 30°C
Vlhkost vzduchu 70%
Tlak 1012 hPa
Viditelnost 10 km a více
Skoro jasno ve výšce 1800 ft, Vertikální cumulus.
Oblačno až skoro zataženo ve výšce 28000 ft

METAR: VRMM 200400Z 23009KT 9999 FEW018TCU BKN280 30/24 Q1012 NOSIG

Čas: 10:24 (05:24 UTC)

Předpověď počasí

Zpráva byla vytvořena před 6 hodinami a 24 minutami, v 23:00 UTC
Předpověď platná od 20 v 00 UTC do 21 v 06 UTC
Jihojihozápadní vítr 7 kt
Viditelnost 10 km a více
Skoro jasno ve výšce 1800 ft
Dočasný
od 20 v 00 UTC do 20 v 06 UTC
Skoro jasno ve výšce 1900 ft, Cumulonimbus.

TAF: VRMM 192300Z 2000/2106 20007KT 9999 FEW018 TEMPO 2000/2006 FEW019CB

Stav a předpovědi počasí z více než 4 000 letišť (zprávy METAR a TAF).

Červené a žluté tečky na mapě představují dostupné meteorologické stanice.

Když kurzor umístíte na tečku, zobrazí se název stanice.

Pak kliknutím zobrazíte stav a předpověď počasí.

Chcete-li změnit mapu, kliknutím na zelené tlačítko se znaménkem +mapu přiblížíte, kliknutím na zelené tlačítko se znaménkem – mapu oddálíte a kliknutím na zelené šipky přejdete na sousední mapy.


METAR-TAF: